Time;durP1;ratioP1;P1;durP2;ratioP2;P2;SDS_P1;SDS_P2;PMS_P1;PMS_P2;Temp;Humidity;BMP_temperature;BMP_pressure;BME280_temperature;BME280_humidity;BME280_pressure;Samples;Min_cycle;Max_cycle;Signal;HPM_P1;HPM_P2
2021/01/16 01:06:17;;;;;;;;;;;2.00;99.90;;;;;;5120917;23;19986;-81
2021/01/16 02:34:05;;;;;;;;;;;2.20;99.90;;;;;;4977337;28;19918;-81
2021/01/16 02:36:39;;;;;;;;;;;1.20;99.90;;;;;;4980873;28;19937;-82
2021/01/16 02:39:08;;;;;;;;;;;2.20;99.90;;;;;;4980829;29;19911;-81
2021/01/16 02:41:36;;;;;;;;;;;1.80;99.90;;;;;;4980877;28;19926;-81
2021/01/16 02:46:38;;;;;;;;;;;2.30;99.90;;;;;;5797651;23;19909;-81
2021/01/16 02:49:10;;;;;;;;;;;1.90;99.90;;;;;;5019644;28;19910;-81
2021/01/16 02:59:23;;;;;;;;;;;2.30;99.90;;;;;;6010944;23;19925;-79
2021/01/16 03:01:49;;;;;;;;;;;2.50;99.90;;;;;;5004074;28;19938;-80
2021/01/16 03:07:18;;;;;;;;;;;2.30;99.90;;;;;;5311571;23;20024;-81
2021/01/16 03:09:45;;;;;;;;;;;1.30;99.90;;;;;;5041115;28;19961;-80
2021/01/16 03:12:12;;;;;;;;;;;2.20;99.90;;;;;;5042100;28;19973;-81
2021/01/16 03:14:38;;;;;;;;;;;2.40;99.90;;;;;;5040602;28;19943;-80
2021/01/16 03:17:06;;;;;;;;;;;2.80;99.90;;;;;;5039631;28;19977;-80
2021/01/16 03:19:32;;;;;;;;;;;2.70;99.90;;;;;;5038028;28;20008;-80
2021/01/16 03:21:59;;;;;;;;;;;3.80;99.90;;;;;;5038437;28;19985;-80
2021/01/16 03:24:25;;;;;;;;;;;1.70;99.90;;;;;;5038113;28;20412;-80
2021/01/16 03:26:53;;;;;;;;;;;0.60;99.90;;;;;;5039276;28;19968;-80
2021/01/16 03:29:19;;;;;;;;;;;2.90;99.90;;;;;;5040077;28;20027;-80
2021/01/16 03:31:45;;;;;;;;;;;2.70;99.90;;;;;;5040653;28;19985;-80
2021/01/16 03:34:12;;;;;;;;;;;4.80;99.90;;;;;;5040966;28;19957;-80
2021/01/16 03:36:38;;;;;;;;;;;2.70;99.90;;;;;;5038725;28;19948;-80
2021/01/16 03:39:05;;;;;;;;;;;2.10;99.90;;;;;;5036951;28;19957;-80
2021/01/16 03:41:31;;;;;;;;;;;2.30;99.90;;;;;;5036982;28;19925;-80
2021/01/16 03:43:58;;;;;;;;;;;2.70;99.90;;;;;;5036513;28;20013;-80
2021/01/16 03:46:25;;;;;;;;;;;2.60;99.90;;;;;;5037356;28;19925;-80
2021/01/16 03:48:51;;;;;;;;;;;2.60;99.90;;;;;;5038271;28;20304;-80
2021/01/16 03:51:17;;;;;;;;;;;2.60;99.90;;;;;;5038480;28;19925;-81
2021/01/16 03:53:44;;;;;;;;;;;2.70;99.90;;;;;;5039710;28;19932;-81
2021/01/16 03:56:10;;;;;;;;;;;2.60;99.90;;;;;;5039542;28;19909;-80
2021/01/16 03:58:36;;;;;;;;;;;2.60;99.90;;;;;;5040091;28;20008;-81
2021/01/16 04:01:03;;;;;;;;;;;2.60;99.90;;;;;;5039718;28;19932;-80
2021/01/16 04:03:30;;;;;;;;;;;2.70;99.90;;;;;;5040220;28;19929;-80
2021/01/16 04:05:56;;;;;;;;;;;2.70;99.90;;;;;;5040956;28;20008;-81
2021/01/16 04:08:22;;;;;;;;;;;2.70;99.90;;;;;;5041305;28;19960;-81
2021/01/16 04:10:49;;;;;;;;;;;2.70;99.90;;;;;;5041470;28;19992;-81
2021/01/16 04:13:15;;;;;;;;;;;2.80;99.90;;;;;;5041730;28;19988;-81
2021/01/16 04:15:41;;;;;;;;;;;2.80;99.90;;;;;;5041665;28;20001;-81
2021/01/16 04:49:13;;;;;;;;;;;3.00;99.90;;;;;;6111492;23;20006;-80
2021/01/16 05:48:38;;;;;;;;;;;3.40;99.90;;;;;;5831824;23;19926;-80
2021/01/16 22:04:31;;;;;;;;;;;5.60;99.90;;;;;;5635415;23;20741;-80
2021/01/16 22:06:57;;;;;;;;;;;5.60;99.90;;;;;;5018276;28;19957;-80
2021/01/16 22:09:24;;;;;;;;;;;5.60;99.90;;;;;;5017453;28;19925;-80
2021/01/16 22:11:51;;;;;;;;;;;5.60;99.90;;;;;;5017339;28;19910;-81
2021/01/16 22:14:18;;;;;;;;;;;5.60;99.90;;;;;;5013111;28;20007;-80
2021/01/16 22:16:45;;;;;;;;;;;5.60;99.90;;;;;;5007092;28;19926;-80
2021/01/16 22:19:12;;;;;;;;;;;5.60;99.90;;;;;;5017010;28;19926;-80
2021/01/16 22:21:42;;;;;;;;;;;5.60;99.90;;;;;;5018261;28;19937;-80
2021/01/16 22:24:12;;;;;;;;;;;5.60;99.90;;;;;;5018737;28;19953;-80
2021/01/16 22:26:39;;;;;;;;;;;5.60;99.90;;;;;;5018423;28;19933;-81
2021/01/16 22:29:05;;;;;;;;;;;5.70;99.90;;;;;;5017611;28;20296;-80
2021/01/16 22:31:32;;;;;;;;;;;5.70;99.90;;;;;;5017990;28;19969;-80
2021/01/16 22:36:41;;;;;;;;;;;5.70;99.90;;;;;;5782940;23;19918;-80
2021/01/16 22:39:07;;;;;;;;;;;5.70;99.90;;;;;;4999558;28;19978;-80
2021/01/16 22:46:44;;;;;;;;;;;5.70;99.90;;;;;;5373262;23;19910;-80
2021/01/16 22:49:12;;;;;;;;;;;5.70;99.90;;;;;;5003660;28;19983;-80
2021/01/16 22:54:16;;;;;;;;;;;5.60;99.90;;;;;;5527952;23;19922;-81
2021/01/16 22:56:50;;;;;;;;;;;7.30;99.90;;;;;;5019043;28;19910;-80
2021/01/16 22:59:17;;;;;;;;;;;4.80;99.90;;;;;;5019454;28;19937;-80
2021/01/16 23:01:43;;;;;;;;;;;5.60;99.90;;;;;;5019579;28;19941;-80
2021/01/16 23:04:10;;;;;;;;;;;5.70;99.90;;;;;;5015757;28;19917;-79
2021/01/16 23:09:49;;;;;;;;;;;5.60;99.90;;;;;;5492792;23;19917;-82
2021/01/16 23:12:17;;;;;;;;;;;5.70;99.90;;;;;;5384359;23;19925;-80
2021/01/16 23:14:43;;;;;;;;;;;7.80;99.90;;;;;;5336842;23;20006;-79
2021/01/16 23:17:10;;;;;;;;;;;5.60;99.90;;;;;;5001548;28;20306;-79
2021/01/16 23:27:32;;;;;;;;;;;5.60;99.90;;;;;;5316592;23;19932;-80
2021/01/16 23:32:33;;;;;;;;;;;5.60;99.90;;;;;;5340791;23;19933;-80
2021/01/16 23:35:00;;;;;;;;;;;5.90;99.90;;;;;;5022180;28;19954;-80
2021/01/16 23:37:26;;;;;;;;;;;6.60;99.90;;;;;;5021179;28;19932;-80
2021/01/16 23:39:53;;;;;;;;;;;5.60;99.90;;;;;;5020450;28;19985;-80
2021/01/16 23:42:20;;;;;;;;;;;5.70;99.90;;;;;;5020710;28;19909;-80
2021/01/16 23:44:50;;;;;;;;;;;5.60;99.90;;;;;;5020622;28;19989;-80
2021/01/16 23:47:17;;;;;;;;;;;5.60;99.90;;;;;;5005297;28;19952;-80
2021/01/16 23:49:43;;;;;;;;;;;5.60;99.90;;;;;;5020158;28;19960;-80
2021/01/16 23:52:10;;;;;;;;;;;5.60;99.90;;;;;;5020846;28;19926;-80
2021/01/16 23:54:37;;;;;;;;;;;5.60;99.90;;;;;;5021403;28;19933;-80
2021/01/16 23:57:04;;;;;;;;;;;5.60;99.90;;;;;;5021060;28;19985;-80
